createdAt,value
2022-12-09T00:00:22.712Z,100311.81
2022-12-09T00:02:54.892Z,100310.11
2022-12-09T00:05:27.451Z,100324.70
2022-12-09T00:07:59.496Z,100320.38
2022-12-09T00:10:31.706Z,100316.97
2022-12-09T00:13:03.962Z,100326.41
2022-12-09T00:15:36.203Z,100320.41
2022-12-09T00:18:09.174Z,100327.27
2022-12-09T00:20:41.634Z,100323.85
2022-12-09T00:23:13.658Z,100326.42
2022-12-09T00:25:45.988Z,100324.70
2022-12-09T00:28:18.131Z,100324.70
2022-12-09T00:30:50.292Z,100335.86
2022-12-09T00:33:22.497Z,100323.00
2022-12-09T00:35:54.722Z,100319.59
2022-12-09T00:38:27.133Z,100326.45
2022-12-09T00:40:59.657Z,100318.73
2022-12-09T00:43:32.280Z,100328.16
2022-12-09T00:46:04.863Z,100329.88
2022-12-09T00:48:38.824Z,100324.73
2022-12-09T00:51:12.017Z,100328.19
2022-12-09T00:53:44.176Z,100329.94
2022-12-09T00:56:16.909Z,100328.20
2022-12-09T00:58:49.154Z,100320.47
2022-12-09T01:01:21.754Z,100323.05
2022-12-09T01:03:54.321Z,100324.75
2022-12-09T01:06:28.130Z,100325.63
2022-12-09T01:09:00.725Z,100323.89
2022-12-09T01:11:32.958Z,100329.05
2022-12-09T01:14:05.758Z,100326.48
2022-12-09T01:16:38.313Z,100326.48
2022-12-09T01:19:13.679Z,100327.36
2022-12-09T01:21:45.773Z,100325.62
2022-12-09T01:24:17.761Z,100320.48
2022-12-09T01:26:50.745Z,100317.06
2022-12-09T01:29:24.110Z,100311.91
2022-12-09T01:31:57.410Z,100311.89
2022-12-09T01:34:29.647Z,100311.91
2022-12-09T01:37:01.491Z,100323.10
2022-12-09T01:39:34.610Z,100312.77
2022-12-09T01:42:08.070Z,100312.75
2022-12-09T01:44:40.470Z,100314.49
2022-12-09T01:47:15.752Z,100305.89
2022-12-09T01:49:48.419Z,100308.45
2022-12-09T01:52:23.833Z,100305.02
2022-12-09T01:54:56.832Z,100305.02
2022-12-09T01:57:29.030Z,100299.88
2022-12-09T02:00:01.319Z,100305.91
2022-12-09T02:02:38.870Z,100311.06
2022-12-09T02:05:12.135Z,100307.63
2022-12-09T02:07:45.676Z,100311.91
2022-12-09T02:10:20.489Z,100313.61
2022-12-09T02:13:07.355Z,100313.61
2022-12-09T02:15:58.005Z,100307.63
2022-12-09T02:18:45.600Z,100307.62
2022-12-09T02:21:29.520Z,100311.05
2022-12-09T02:24:20.727Z,100305.91
2022-12-09T02:27:18.749Z,100306.74
2022-12-09T02:29:54.077Z,100297.30
2022-12-09T02:32:35.466Z,100309.34
2022-12-09T02:35:18.586Z,100313.61
2022-12-09T02:37:57.093Z,100318.73
2022-12-09T02:40:36.830Z,100312.74
2022-12-09T02:43:11.117Z,100308.45
2022-12-09T02:45:45.236Z,100307.58
2022-12-09T02:48:20.588Z,100306.73
2022-12-09T02:50:55.357Z,100305.84
2022-12-09T02:53:29.601Z,100304.97
2022-12-09T02:56:03.310Z,100310.12
2022-12-09T02:58:37.342Z,100306.70
2022-12-09T03:01:22.259Z,100310.12
2022-12-09T03:03:55.832Z,100304.16
2022-12-09T03:06:30.897Z,100297.28
2022-12-09T03:09:06.243Z,100297.29
2022-12-09T03:11:40.957Z,100292.98
2022-12-09T03:14:18.924Z,100293.88
2022-12-09T03:17:06.208Z,100291.30
2022-12-09T03:19:44.155Z,100284.44
2022-12-09T03:22:19.120Z,100288.72
2022-12-09T03:25:01.161Z,100284.45
2022-12-09T03:27:41.263Z,100278.44
2022-12-09T03:30:14.832Z,100275.88
2022-12-09T03:32:48.982Z,100277.59
2022-12-09T03:35:23.945Z,100281.88
2022-12-09T03:37:56.608Z,100279.31
2022-12-09T03:40:32.554Z,100283.59
2022-12-09T03:43:07.844Z,100290.48
2022-12-09T03:45:42.557Z,100281.03
2022-12-09T03:48:15.432Z,100287.89
2022-12-09T03:50:57.422Z,100279.33
2022-12-09T03:53:47.376Z,100274.19
2022-12-09T03:56:23.697Z,100278.46
2022-12-09T03:58:57.883Z,100279.33
2022-12-09T04:01:32.032Z,100278.45
2022-12-09T04:04:05.002Z,100267.31
2022-12-09T04:06:37.360Z,100266.47
2022-12-09T04:09:11.417Z,100268.16
2022-12-09T04:11:46.414Z,100265.58
2022-12-09T04:14:21.766Z,100271.60
2022-12-09T04:16:57.601Z,100271.60
2022-12-09T04:19:30.920Z,100270.75
2022-12-09T04:22:06.281Z,100260.45
2022-12-09T04:24:40.053Z,100271.62
2022-12-09T04:27:14.587Z,100270.77
2022-12-09T04:29:49.323Z,100270.78
2022-12-09T04:32:23.792Z,100268.19
2022-12-09T04:34:56.887Z,100269.91
2022-12-09T04:37:30.154Z,100267.34
2022-12-09T04:40:04.075Z,100267.34
2022-12-09T04:42:37.837Z,100261.32
2022-12-09T04:45:11.384Z,100262.19
2022-12-09T04:47:44.009Z,100266.50
2022-12-09T04:50:17.299Z,100265.62
2022-12-09T04:52:50.943Z,100267.34
2022-12-09T04:55:26.964Z,100270.78
2022-12-09T04:58:00.128Z,100263.06
2022-12-09T05:00:36.247Z,100263.06
2022-12-09T05:03:09.984Z,100254.46
2022-12-09T05:05:43.261Z,100254.46
2022-12-09T05:08:16.849Z,100259.61
2022-12-09T05:10:51.250Z,100246.73
2022-12-09T05:13:24.321Z,100256.17
2022-12-09T05:16:12.123Z,100244.16
2022-12-09T05:18:40.440Z,100241.59
2022-12-09T05:21:16.646Z,100246.72
2022-12-09T05:23:49.813Z,100245.03
2022-12-09T05:26:24.333Z,100247.59
2022-12-09T05:28:57.302Z,100252.76
2022-12-09T05:31:31.898Z,100257.04
2022-12-09T05:34:05.621Z,100261.33
2022-12-09T05:36:39.400Z,100257.03
2022-12-09T05:39:12.797Z,100264.75
2022-12-09T05:41:47.447Z,100247.60
2022-12-09T05:44:19.939Z,100242.42
2022-12-09T05:46:52.883Z,100243.28
2022-12-09T05:49:26.902Z,100242.45
2022-12-09T05:52:00.922Z,100244.16
2022-12-09T05:54:33.538Z,100245.02
2022-12-09T05:57:06.601Z,100241.57
2022-12-09T05:59:40.305Z,100241.57
2022-12-09T06:02:14.015Z,100239.00
2022-12-09T06:04:47.530Z,100234.72
2022-12-09T06:07:22.666Z,100231.28
2022-12-09T06:09:56.477Z,100237.27
2022-12-09T06:12:31.092Z,100235.57
2022-12-09T06:15:04.062Z,100232.12
2022-12-09T06:17:37.166Z,100233.84
2022-12-09T06:20:10.279Z,100236.42
2022-12-09T06:22:43.647Z,100221.83
2022-12-09T06:25:16.977Z,100214.95
2022-12-09T06:27:49.187Z,100228.68
2022-12-09T06:30:22.287Z,100218.38
2022-12-09T06:32:54.909Z,100216.64
2022-12-09T06:35:28.665Z,100217.52
2022-12-09T06:38:01.158Z,100223.50
2022-12-09T06:40:34.090Z,100221.77
2022-12-09T06:43:07.508Z,100216.61
2022-12-09T06:45:41.762Z,100224.29
2022-12-09T06:48:16.206Z,100216.62
2022-12-09T06:50:53.430Z,100217.45
2022-12-09T06:53:26.529Z,100211.43
2022-12-09T06:56:11.043Z,100207.98
2022-12-09T06:58:41.208Z,100202.83
2022-12-09T07:01:17.335Z,100207.98
2022-12-09T07:03:54.771Z,100217.42
2022-12-09T07:06:39.291Z,100206.27
2022-12-09T07:09:20.333Z,100204.53
2022-12-09T07:11:54.750Z,100199.38
2022-12-09T07:14:27.665Z,100204.49
2022-12-09T07:17:03.857Z,100199.34
2022-12-09T07:19:37.162Z,100199.34
2022-12-09T07:22:10.285Z,100196.76
2022-12-09T07:24:43.932Z,100193.34
2022-12-09T07:27:19.746Z,100200.20
2022-12-09T07:29:52.308Z,100204.49
2022-12-09T07:32:26.780Z,100201.08
2022-12-09T07:35:00.399Z,100197.63
2022-12-09T07:37:34.999Z,100207.08
2022-12-09T07:40:09.975Z,100208.81
2022-12-09T07:42:44.095Z,100217.42
2022-12-09T07:45:17.157Z,100207.11
2022-12-09T07:47:50.939Z,100207.95
2022-12-09T07:50:26.022Z,100199.38
2022-12-09T07:53:01.374Z,100193.34
2022-12-09T07:55:36.800Z,100195.05
2022-12-09T07:58:09.523Z,100191.59
2022-12-09T08:00:42.244Z,100189.89
2022-12-09T08:03:16.235Z,100182.14
2022-12-09T08:05:50.154Z,100183.85
2022-12-09T08:08:23.660Z,100176.06
2022-12-09T08:10:58.463Z,100188.97
2022-12-09T08:13:31.078Z,100174.36
2022-12-09T08:16:08.617Z,100174.26
2022-12-09T08:18:42.288Z,100170.91
2022-12-09T08:21:21.966Z,100181.22
2022-12-09T08:23:57.118Z,100165.75
2022-12-09T08:26:33.288Z,100171.78
2022-12-09T08:29:12.197Z,100163.22
2022-12-09T08:31:45.598Z,100158.09
2022-12-09T08:34:19.078Z,100148.63
2022-12-09T08:36:52.967Z,100145.20
2022-12-09T08:39:27.797Z,100152.08
2022-12-09T08:42:00.938Z,100135.77
2022-12-09T08:44:34.943Z,100133.19
2022-12-09T08:47:07.563Z,100127.16
2022-12-09T08:49:41.170Z,100121.99
2022-12-09T08:52:14.276Z,100121.99
2022-12-09T08:54:48.159Z,100107.36
2022-12-09T08:57:26.931Z,100108.22
2022-12-09T09:00:02.206Z,100096.16
2022-12-09T09:02:35.656Z,100097.85
2022-12-09T09:05:09.507Z,100099.55
2022-12-09T09:07:42.844Z,100099.55
2022-12-09T09:10:18.235Z,100097.84
2022-12-09T09:12:51.360Z,100087.52
2022-12-09T09:15:25.180Z,100091.80
2022-12-09T09:18:00.436Z,100086.65
2022-12-09T09:20:33.573Z,100088.35
2022-12-09T09:23:06.187Z,100095.26
2022-12-09T09:25:46.343Z,100092.63
2022-12-09T09:28:20.023Z,100097.79
2022-12-09T09:31:04.315Z,100092.63
2022-12-09T09:33:37.283Z,100080.61
2022-12-09T09:36:18.200Z,100084.06
2022-12-09T09:38:53.283Z,100081.50
2022-12-09T09:41:50.073Z,100081.50
2022-12-09T09:44:40.434Z,100069.47
2022-12-09T09:47:23.180Z,100064.30
2022-12-09T09:50:17.472Z,100065.13
2022-12-09T09:52:51.309Z,100059.95
2022-12-09T09:55:32.430Z,100067.58
2022-12-09T09:58:23.156Z,100062.54
2022-12-09T10:01:12.330Z,100060.84
2022-12-09T10:03:51.156Z,100059.09
2022-12-09T10:06:43.868Z,100053.93
2022-12-09T10:09:23.244Z,100043.61
2022-12-09T10:12:15.982Z,100035.00
2022-12-09T10:14:55.222Z,100034.98
2022-12-09T10:17:42.860Z,100039.31
2022-12-09T10:20:19.011Z,100024.73
2022-12-09T10:23:04.215Z,100027.31
2022-12-09T10:25:40.930Z,100022.98
2022-12-09T10:28:20.961Z,100017.81
2022-12-09T10:30:55.799Z,100021.25
2022-12-09T10:33:32.444Z,100020.36
2022-12-09T10:36:07.794Z,100014.31
2022-12-09T10:38:42.716Z,100010.84
2022-12-09T10:41:28.930Z,100005.69
2022-12-09T10:44:05.240Z,100002.24
2022-12-09T10:46:37.960Z,100009.98
2022-12-09T10:49:13.683Z,100003.09
2022-12-09T10:51:51.755Z,100007.37
2022-12-09T10:54:40.152Z,100001.31
2022-12-09T10:57:16.414Z,100008.18
2022-12-09T11:00:11.154Z,100010.75
2022-12-09T11:02:47.740Z,100009.88
2022-12-09T11:05:28.761Z,99994.40
2022-12-09T11:08:03.253Z,99990.94
2022-12-09T11:10:39.997Z,99987.52
2022-12-09T11:13:16.904Z,99981.45
2022-12-09T11:15:57.702Z,99973.67
2022-12-09T11:18:33.935Z,99981.47
2022-12-09T11:21:08.992Z,99973.73
2022-12-09T11:23:45.545Z,99976.31
2022-12-09T11:26:24.662Z,99974.61
2022-12-09T11:29:04.727Z,99967.71
2022-12-09T11:31:45.814Z,99975.46
2022-12-09T11:34:26.526Z,99977.20
2022-12-09T11:37:03.722Z,99973.75
2022-12-09T11:39:38.933Z,99967.77
2022-12-09T11:42:22.743Z,99973.81
2022-12-09T11:45:06.278Z,99960.94
2022-12-09T11:48:22.609Z,99958.37
2022-12-09T11:50:26.091Z,99964.41
2022-12-09T11:53:13.911Z,99953.27
2022-12-09T11:55:52.530Z,99959.34
2022-12-09T11:58:50.119Z,99955.08
2022-12-09T12:01:29.363Z,99959.41
2022-12-09T12:04:09.657Z,99956.03
2022-12-09T12:06:56.263Z,99947.45
2022-12-09T12:09:32.104Z,99950.91
2022-12-09T12:12:17.560Z,99945.80
2022-12-09T12:14:51.864Z,99949.27
2022-12-09T12:17:40.457Z,99945.82
2022-12-09T12:20:14.965Z,99950.83
2022-12-09T12:23:13.780Z,99944.06
2022-12-09T12:26:16.773Z,99944.95
2022-12-09T12:29:06.897Z,99942.38
2022-12-09T12:31:54.471Z,99944.95
2022-12-09T12:34:39.846Z,99952.68
2022-12-09T12:37:30.912Z,99952.66
2022-12-09T12:40:10.825Z,99948.39
2022-12-09T12:42:48.335Z,99948.41
2022-12-09T12:45:42.092Z,99949.36
2022-12-09T12:48:18.819Z,99955.41
2022-12-09T12:51:13.550Z,99956.28
2022-12-09T12:53:47.240Z,99946.86
2022-12-09T12:56:32.298Z,99944.20
2022-12-09T12:59:25.990Z,99949.44
2022-12-09T13:02:21.296Z,99952.00
2022-12-09T13:05:00.513Z,99949.49
2022-12-09T13:07:45.890Z,99950.38
2022-12-09T13:10:24.126Z,99945.23
2022-12-09T13:13:01.246Z,99938.37
2022-12-09T13:15:40.642Z,99939.23
2022-12-09T13:18:16.729Z,99940.95
2022-12-09T13:20:52.985Z,99945.27
2022-12-09T13:23:46.750Z,99931.53
2022-12-09T13:26:26.701Z,99940.14
2022-12-09T13:29:35.754Z,99939.30
2022-12-09T13:32:18.015Z,99941.89
2022-12-09T13:34:55.076Z,99934.09
2022-12-09T13:37:39.383Z,99926.47
2022-12-09T13:40:24.340Z,99935.04
2022-12-09T13:43:06.676Z,99939.36
2022-12-09T13:45:47.817Z,99931.63
2022-12-09T13:48:24.015Z,99933.34
2022-12-09T13:51:00.351Z,99928.18
2022-12-09T13:53:40.096Z,99930.76
2022-12-09T13:56:29.444Z,99934.20
2022-12-09T13:59:25.001Z,99921.33
2022-12-09T14:02:17.927Z,99928.19
2022-12-09T14:05:00.200Z,99920.45
2022-12-09T14:07:38.208Z,99921.33
2022-12-09T14:10:43.270Z,99918.75
2022-12-09T14:13:31.536Z,99919.63
2022-12-09T14:16:29.120Z,99919.58
2022-12-09T14:19:21.542Z,99916.18
2022-12-09T14:22:20.357Z,99913.61
2022-12-09T14:24:56.469Z,99909.33
2022-12-09T14:27:31.586Z,99910.20
2022-12-09T14:30:07.885Z,99908.46
2022-12-09T14:32:55.224Z,99902.47
2022-12-09T14:35:49.410Z,99902.48
2022-12-09T14:39:08.291Z,99898.20
2022-12-09T14:41:30.649Z,99891.31
2022-12-09T14:44:23.063Z,99892.19
2022-12-09T14:47:03.334Z,99889.61
2022-12-09T14:49:42.784Z,99887.91
2022-12-09T14:52:16.457Z,99892.18
2022-12-09T14:54:53.460Z,99890.47
2022-12-09T14:57:30.298Z,99890.47
2022-12-09T15:00:06.309Z,99882.70
2022-12-09T15:02:38.872Z,99876.72
2022-12-09T15:05:18.031Z,99883.58
2022-12-09T15:07:52.449Z,99880.13
2022-12-09T15:10:32.078Z,99882.70
2022-12-09T15:13:03.977Z,99880.98
2022-12-09T15:15:39.708Z,99884.39
2022-12-09T15:18:24.288Z,99880.94
2022-12-09T15:21:01.921Z,99880.07
2022-12-09T15:23:41.294Z,99882.62
2022-12-09T15:26:23.242Z,99881.77
2022-12-09T15:28:59.770Z,99890.36
2022-12-09T15:31:35.137Z,99886.91
2022-12-09T15:34:15.217Z,99879.19
2022-12-09T15:36:51.841Z,99869.70
2022-12-09T15:39:31.047Z,99881.75
2022-12-09T15:42:08.147Z,99886.91
2022-12-09T15:45:03.920Z,99898.08
2022-12-09T15:47:46.052Z,99881.75
2022-12-09T15:50:33.427Z,99883.46
2022-12-09T15:53:09.679Z,99876.61
2022-12-09T15:55:45.308Z,99880.06
2022-12-09T15:58:24.247Z,99884.34
2022-12-09T16:00:58.160Z,99869.75
2022-12-09T16:03:35.507Z,99875.73
2022-12-09T16:06:10.164Z,99878.30
2022-12-09T16:08:45.524Z,99881.75
2022-12-09T16:11:39.270Z,99875.72
2022-12-09T16:14:13.324Z,99861.97
2022-12-09T16:16:49.172Z,99863.70
2022-12-09T16:19:34.936Z,99865.39
2022-12-09T16:22:11.405Z,99867.10
2022-12-09T16:27:24.835Z,99858.50
2022-12-09T16:30:01.200Z,99854.21
2022-12-09T16:32:43.113Z,99853.33
2022-12-09T16:35:19.950Z,99862.77
2022-12-09T16:38:01.381Z,99855.91
2022-12-09T16:40:49.130Z,99861.89
2022-12-09T16:43:24.065Z,99861.89
2022-12-09T16:46:00.322Z,99859.31
2022-12-09T16:48:33.453Z,99860.17
2022-12-09T16:51:18.248Z,99858.44
2022-12-09T16:53:53.840Z,99861.89
2022-12-09T16:56:28.714Z,99857.60
2022-12-09T16:59:00.993Z,99855.90
2022-12-09T17:01:36.947Z,99852.45
2022-12-09T17:04:17.999Z,99846.42
2022-12-09T17:06:50.354Z,99836.98
2022-12-09T17:09:22.536Z,99838.70
2022-12-09T17:11:54.749Z,99830.97
2022-12-09T17:14:27.615Z,99832.70
2022-12-09T17:17:03.368Z,99847.28
2022-12-09T17:19:38.197Z,99842.97
2022-12-09T17:22:10.520Z,99845.52
2022-12-09T17:24:42.818Z,99851.51
2022-12-09T17:27:14.880Z,99853.23
2022-12-09T17:29:47.888Z,99854.06
2022-12-09T17:32:20.262Z,99847.20
2022-12-09T17:34:54.279Z,99846.31
2022-12-09T17:37:26.555Z,99838.59
2022-12-09T17:40:06.624Z,99825.65
2022-12-09T17:42:33.885Z,99818.78
2022-12-09T17:45:07.344Z,99820.49
2022-12-09T17:47:39.618Z,99819.66
2022-12-09T17:50:11.752Z,99827.38
2022-12-09T17:52:43.806Z,99818.77
2022-12-09T17:55:15.868Z,99828.20
2022-12-09T17:57:53.931Z,99823.92
2022-12-09T18:00:21.795Z,99821.34
2022-12-09T18:02:53.757Z,99823.05
2022-12-09T18:05:25.819Z,99828.19
2022-12-09T18:07:58.393Z,99825.63
2022-12-09T18:10:30.350Z,99821.34
2022-12-09T18:13:03.026Z,99816.18
2022-12-09T18:15:39.657Z,99811.04
2022-12-09T18:18:12.186Z,99817.06
2022-12-09T18:20:44.276Z,99811.87
2022-12-09T18:23:16.373Z,99810.15
2022-12-09T18:25:49.043Z,99810.14
2022-12-09T18:28:21.112Z,99805.81
2022-12-09T18:30:53.334Z,99798.06
2022-12-09T18:33:25.995Z,99798.05
2022-12-09T18:35:58.176Z,99802.34
2022-12-09T18:38:30.742Z,99795.47
2022-12-09T18:41:02.942Z,99786.03
2022-12-09T18:43:38.129Z,99785.16
2022-12-09T18:46:13.782Z,99784.28
2022-12-09T18:48:46.840Z,99785.16
2022-12-09T18:51:21.459Z,99782.58
2022-12-09T18:53:54.591Z,99771.38
2022-12-09T18:56:27.399Z,99770.51
2022-12-09T18:59:08.968Z,99772.23
2022-12-09T19:01:35.988Z,99765.35
2022-12-09T19:04:09.329Z,99758.49
2022-12-09T19:06:43.131Z,99766.20
2022-12-09T19:09:18.191Z,99765.34
2022-12-09T19:11:52.182Z,99761.92
2022-12-09T19:14:25.464Z,99760.20
2022-12-09T19:16:57.937Z,99755.03
2022-12-09T19:19:30.798Z,99748.98
2022-12-09T19:22:03.792Z,99742.13
2022-12-09T19:24:42.678Z,99743.88
2022-12-09T19:27:10.801Z,99744.72
2022-12-09T19:29:42.946Z,99747.30
2022-12-09T19:32:50.854Z,99750.75
2022-12-09T19:34:48.628Z,99752.45
2022-12-09T19:37:20.527Z,99752.45
2022-12-09T19:39:53.245Z,99748.18
2022-12-09T19:42:25.586Z,99747.30
2022-12-09T19:45:02.334Z,99743.02
2022-12-09T19:47:33.161Z,99747.28
2022-12-09T19:50:05.939Z,99742.13
2022-12-09T19:52:38.175Z,99743.88
2022-12-09T19:55:10.847Z,99730.13
2022-12-09T19:57:43.125Z,99733.59
2022-12-09T20:00:15.750Z,99734.50
2022-12-09T20:02:49.583Z,99737.11
2022-12-09T20:05:21.674Z,99738.00
2022-12-09T20:07:54.320Z,99740.59
2022-12-09T20:10:26.325Z,99740.64
2022-12-09T20:12:58.519Z,99739.79
2022-12-09T20:15:30.783Z,99742.41
2022-12-09T20:18:02.663Z,99729.48
2022-12-09T20:20:36.225Z,99729.47
2022-12-09T20:23:08.595Z,99735.48
2022-12-09T20:25:40.995Z,99742.32
2022-12-09T20:28:13.059Z,99747.46
2022-12-09T20:30:45.690Z,99749.14
2022-12-09T20:33:17.783Z,99749.14
2022-12-09T20:35:49.964Z,99746.52
2022-12-09T20:38:22.353Z,99758.56
2022-12-09T20:40:54.382Z,99747.36
2022-12-09T20:43:26.607Z,99752.45
2022-12-09T20:45:58.625Z,99744.73
2022-12-09T20:48:31.502Z,99747.29
2022-12-09T20:51:08.101Z,99748.15
2022-12-09T20:53:43.074Z,99748.15
2022-12-09T20:56:15.722Z,99752.42
2022-12-09T20:58:51.148Z,99755.88
2022-12-09T21:01:26.180Z,99757.58
2022-12-09T21:03:59.937Z,99748.14
2022-12-09T21:06:35.037Z,99739.56
2022-12-09T21:09:10.492Z,99735.30
2022-12-09T21:11:42.980Z,99733.63
2022-12-09T21:14:18.535Z,99731.94
2022-12-09T21:16:53.634Z,99730.23
2022-12-09T21:19:27.635Z,99735.39
2022-12-09T21:22:00.362Z,99740.56
2022-12-09T21:24:33.958Z,99735.42
2022-12-09T21:27:06.545Z,99733.70
2022-12-09T21:29:39.282Z,99722.54
2022-12-09T21:32:11.229Z,99721.64
2022-12-09T21:34:43.471Z,99714.79
2022-12-09T21:37:15.629Z,99716.48
2022-12-09T21:39:47.931Z,99708.80
2022-12-09T21:42:19.937Z,99716.55
2022-12-09T21:44:51.860Z,99704.56
2022-12-09T21:47:24.351Z,99701.17
2022-12-09T21:49:57.221Z,99697.74
2022-12-09T21:52:29.791Z,99702.91
2022-12-09T21:55:02.546Z,99693.48
2022-12-09T21:57:36.273Z,99692.62
2022-12-09T22:00:10.747Z,99697.77
2022-12-09T22:02:44.613Z,99696.06
2022-12-09T22:05:17.166Z,99692.61
2022-12-09T22:07:50.909Z,99684.03
2022-12-09T22:10:23.219Z,99687.44
2022-12-09T22:12:56.013Z,99681.41
2022-12-09T22:15:28.573Z,99683.14
2022-12-09T22:18:01.469Z,99676.25
2022-12-09T22:21:07.934Z,99686.61
2022-12-09T22:23:07.895Z,99679.70
2022-12-09T22:25:40.608Z,99679.70
2022-12-09T22:28:12.808Z,99685.73
2022-12-09T22:30:44.922Z,99681.45
2022-12-09T22:33:17.145Z,99681.45
2022-12-09T22:35:49.490Z,99687.45
2022-12-09T22:38:22.353Z,99683.17
2022-12-09T22:40:54.387Z,99678.89
2022-12-09T22:43:27.351Z,99689.20
2022-12-09T22:46:07.903Z,99679.73
2022-12-09T22:48:41.057Z,99682.30
2022-12-09T22:51:17.616Z,99670.27
2022-12-09T22:53:51.290Z,99671.97
2022-12-09T22:56:25.014Z,99683.08
2022-12-09T22:58:57.257Z,99689.09
2022-12-09T23:01:33.086Z,99685.63
2022-12-09T23:04:07.053Z,99683.94
2022-12-09T23:06:40.915Z,99678.78
2022-12-09T23:09:16.204Z,99683.06
2022-12-09T23:11:49.163Z,99677.89
2022-12-09T23:14:22.070Z,99678.72
2022-12-09T23:16:54.294Z,99669.28
2022-12-09T23:19:26.887Z,99676.13
2022-12-09T23:21:59.483Z,99679.56
2022-12-09T23:24:31.736Z,99681.27
2022-12-09T23:27:04.720Z,99683.83
2022-12-09T23:29:36.963Z,99688.11
2022-12-09T23:32:09.347Z,99692.43
2022-12-09T23:34:41.589Z,99698.41
2022-12-09T23:37:15.071Z,99688.08
2022-12-09T23:39:49.115Z,99686.38
2022-12-09T23:42:21.934Z,99690.64
2022-12-09T23:44:54.079Z,99689.55
2022-12-09T23:47:26.667Z,99683.72
2022-12-09T23:49:58.890Z,99695.73
2022-12-09T23:52:30.941Z,99698.36
2022-12-09T23:55:04.667Z,99694.04
2022-12-09T23:57:36.903Z,99702.65
